Time;durP1;ratioP1;P1;durP2;ratioP2;P2;SDS_P1;SDS_P2;PMS_P1;PMS_P2;Temp;Humidity;BMP_temperature;BMP_pressure;BME280_temperature;BME280_humidity;BME280_pressure;Samples;Min_cycle;Max_cycle;Signal;HPM_P1;HPM_P2
2023/03/12 00:02:06;;;;;;;2.03;1.90;;;0.60;99.90;;;;;;5037858;28;20274;-68
2023/03/12 00:04:33;;;;;;;1.60;1.50;;;0.60;99.90;;;;;;5041570;28;20526;-67
2023/03/12 00:06:59;;;;;;;1.83;1.47;;;0.60;99.90;;;;;;5039721;28;20726;-69
2023/03/12 00:09:24;;;;;;;8.53;2.30;;;0.60;99.90;;;;;;5038658;28;20410;-67
2023/03/12 00:11:50;;;;;;;4.23;1.40;;;0.70;99.90;;;;;;5043638;28;20191;-67
2023/03/12 00:14:16;;;;;;;2.20;1.90;;;0.60;99.90;;;;;;5038527;28;20171;-68
2023/03/12 00:16:41;;;;;;;2.63;1.80;;;0.60;99.90;;;;;;5030447;28;20179;-68
2023/03/12 00:19:10;;;;;;;1.10;1.10;;;0.40;99.90;;;;;;5020032;28;20785;-68
2023/03/12 00:21:35;;;;;;;10.47;1.73;;;0.40;99.90;;;;;;5026648;28;20228;-69
2023/03/12 00:24:01;;;;;;;2.90;2.17;;;0.50;99.90;;;;;;5038055;28;20971;-67
2023/03/12 00:26:27;;;;;;;2.70;2.50;;;0.40;99.90;;;;;;5040091;28;20167;-68
2023/03/12 00:28:52;;;;;;;2.10;2.00;;;0.50;99.90;;;;;;5043520;28;20164;-67
2023/03/12 00:31:26;;;;;;;1.73;1.30;;;0.50;99.90;;;;;;5039460;28;20732;-68
2023/03/12 00:33:53;;;;;;;9.03;1.40;;;0.50;99.90;;;;;;5041317;28;20235;-68
2023/03/12 00:36:23;;;;;;;4.63;1.70;;;0.50;99.90;;;;;;5043405;28;20551;-67
2023/03/12 00:38:49;;;;;;;3.63;2.33;;;0.50;99.90;;;;;;5042052;28;20420;-67
2023/03/12 00:41:15;;;;;;;2.60;1.50;;;0.40;99.90;;;;;;5032875;28;20414;-67
2023/03/12 00:43:41;;;;;;;1.80;1.27;;;0.40;99.90;;;;;;5037185;28;20888;-67
2023/03/12 00:46:06;;;;;;;4.70;2.10;;;0.40;99.90;;;;;;5041739;28;20179;-67
2023/03/12 00:48:32;;;;;;;1.83;1.40;;;0.60;99.90;;;;;;5037947;28;20167;-69
2023/03/12 00:50:57;;;;;;;2.33;1.60;;;0.80;99.90;;;;;;5041003;28;20723;-67
2023/03/12 00:53:23;;;;;;;1.50;1.40;;;0.70;99.90;;;;;;5032698;28;20322;-68
2023/03/12 00:55:49;;;;;;;7.40;1.87;;;0.80;99.90;;;;;;5046635;28;20246;-68
2023/03/12 00:58:14;;;;;;;11.40;2.17;;;0.80;99.90;;;;;;5040174;28;20545;-67
2023/03/12 01:00:40;;;;;;;4.23;1.87;;;0.90;99.90;;;;;;5040103;28;20174;-67
2023/03/12 01:03:05;;;;;;;3.73;2.13;;;0.90;99.90;;;;;;5041359;28;20562;-68
2023/03/12 01:05:36;;;;;;;2.13;1.50;;;1.00;99.90;;;;;;5032617;28;20198;-68
2023/03/12 01:08:05;;;;;;;1.87;1.40;;;1.20;99.90;;;;;;5041146;28;20175;-67
2023/03/12 01:10:31;;;;;;;2.50;2.00;;;1.20;99.90;;;;;;5032331;28;20969;-67
2023/03/12 01:12:57;;;;;;;3.13;1.57;;;1.20;99.90;;;;;;5038362;28;20520;-68
2023/03/12 01:15:22;;;;;;;1.70;1.60;;;1.20;99.90;;;;;;5023195;28;20179;-68
2023/03/12 01:17:48;;;;;;;1.60;1.50;;;1.20;99.90;;;;;;5044718;28;20255;-67
2023/03/12 01:20:14;;;;;;;2.50;2.30;;;1.20;99.90;;;;;;5040109;28;20171;-67
2023/03/12 01:22:40;;;;;;;1.83;1.40;;;1.10;99.90;;;;;;5043973;28;20191;-66
2023/03/12 01:25:06;;;;;;;4.50;2.30;;;1.20;99.90;;;;;;5026397;28;20500;-67
2023/03/12 01:27:32;;;;;;;3.40;1.83;;;1.20;99.90;;;;;;5038429;28;20543;-68
2023/03/12 01:29:57;;;;;;;2.13;2.00;;;1.20;99.90;;;;;;5041827;28;20413;-68
2023/03/12 01:32:23;;;;;;;1.60;1.50;;;1.30;99.90;;;;;;5041095;28;20290;-67
2023/03/12 01:34:48;;;;;;;3.73;1.87;;;1.20;99.90;;;;;;5036931;28;20191;-68
2023/03/12 01:37:14;;;;;;;1.83;1.73;;;1.20;99.90;;;;;;5039551;28;20170;-69
2023/03/12 01:39:40;;;;;;;2.60;2.10;;;1.30;99.90;;;;;;5036590;28;20239;-68
2023/03/12 01:42:06;;;;;;;3.70;2.23;;;1.30;99.90;;;;;;5036145;28;20218;-66
2023/03/12 01:44:51;;;;;;;3.50;1.80;;;1.40;99.90;;;;;;5039525;28;20163;-68
2023/03/12 01:47:17;;;;;;;2.90;1.50;;;1.50;99.90;;;;;;5035758;28;20442;-68
2023/03/12 01:49:45;;;;;;;3.37;1.70;;;1.50;99.90;;;;;;5042485;28;20434;-68
2023/03/12 01:52:19;;;;;;;3.63;1.77;;;1.50;99.90;;;;;;5031469;28;20180;-68
2023/03/12 01:55:09;;;;;;;2.10;1.90;;;1.50;99.90;;;;;;5047273;28;20390;-67
2023/03/12 01:57:38;;;;;;;2.27;1.57;;;1.50;99.90;;;;;;5038824;28;20508;-67
2023/03/12 02:00:10;;;;;;;2.80;1.77;;;1.50;99.90;;;;;;5041621;28;20409;-67
2023/03/12 02:02:37;;;;;;;3.97;3.13;;;1.50;99.90;;;;;;5039343;28;20460;-67
2023/03/12 02:05:10;;;;;;;2.43;1.50;;;1.50;99.90;;;;;;5043646;28;20418;-68
2023/03/12 02:07:36;;;;;;;8.70;2.03;;;1.50;99.90;;;;;;5032242;28;20412;-68
2023/03/12 02:10:04;;;;;;;1.93;1.60;;;1.50;99.90;;;;;;5043789;28;20413;-68
2023/03/12 02:12:30;;;;;;;2.80;1.90;;;1.50;99.90;;;;;;5048444;28;20306;-68
2023/03/12 02:14:55;;;;;;;2.97;2.23;;;1.50;99.90;;;;;;5014201;28;20443;-68
2023/03/12 02:17:21;;;;;;;3.30;2.20;;;1.50;99.90;;;;;;5040446;28;20588;-68
2023/03/12 02:20:00;;;;;;;1.77;1.67;;;1.50;99.90;;;;;;5049263;28;20269;-69
2023/03/12 02:22:27;;;;;;;1.80;1.60;;;1.50;99.90;;;;;;5042254;28;20691;-68
2023/03/12 02:25:03;;;;;;;2.00;1.70;;;1.50;99.90;;;;;;5044525;28;20414;-67
2023/03/12 02:27:34;;;;;;;1.53;1.43;;;1.40;99.90;;;;;;5042714;28;20406;-67
2023/03/12 02:30:02;;;;;;;1.97;1.77;;;1.40;99.90;;;;;;5044233;28;20528;-67
2023/03/12 02:32:34;;;;;;;3.90;2.00;;;1.30;99.90;;;;;;5039946;28;20442;-68
2023/03/12 02:35:00;;;;;;;4.07;2.03;;;1.20;99.90;;;;;;5038851;28;20497;-67
2023/03/12 02:37:26;;;;;;;2.60;1.70;;;1.20;99.90;;;;;;5034537;28;20421;-68
2023/03/12 02:40:04;;;;;;;5.57;2.07;;;1.10;99.90;;;;;;5038974;28;20418;-68
2023/03/12 02:42:33;;;;;;;6.43;2.50;;;1.00;99.90;;;;;;5039229;28;20221;-67
2023/03/12 02:45:00;;;;;;;4.00;1.50;;;0.90;99.90;;;;;;5043571;28;20423;-67
2023/03/12 02:47:26;;;;;;;2.83;2.63;;;0.90;99.90;;;;;;5040246;28;20769;-68
2023/03/12 02:49:51;;;;;;;4.43;2.20;;;0.80;99.90;;;;;;5036677;28;20443;-68
2023/03/12 02:52:17;;;;;;;1.53;1.43;;;0.80;99.90;;;;;;5040394;28;20282;-67
2023/03/12 02:54:42;;;;;;;3.23;1.60;;;0.80;99.90;;;;;;5044083;28;20180;-68
2023/03/12 02:57:08;;;;;;;5.63;2.50;;;0.80;99.90;;;;;;5032214;28;20238;-69
2023/03/12 02:59:34;;;;;;;4.10;1.80;;;0.70;99.90;;;;;;5046143;28;20187;-68
2023/03/12 03:02:00;;;;;;;5.93;1.70;;;0.70;99.90;;;;;;5038879;28;20195;-68
2023/03/12 03:04:27;;;;;;;4.03;1.77;;;0.60;99.90;;;;;;5046117;28;20175;-68
2023/03/12 03:06:52;;;;;;;2.20;1.50;;;0.60;99.90;;;;;;5030046;28;20414;-68
2023/03/12 03:09:20;;;;;;;2.20;2.00;;;0.50;99.90;;;;;;5036445;28;20425;-68
2023/03/12 03:11:46;;;;;;;4.87;2.60;;;0.40;99.90;;;;;;5037664;28;20494;-68
2023/03/12 03:14:12;;;;;;;3.00;2.70;;;0.40;99.90;;;;;;5038911;28;20428;-68
2023/03/12 03:16:37;;;;;;;14.67;2.80;;;0.30;99.90;;;;;;5034686;28;20809;-68
2023/03/12 03:19:04;;;;;;;2.40;2.10;;;0.20;99.90;;;;;;5036987;28;20263;-68
2023/03/12 03:21:30;;;;;;;2.83;1.97;;;0.20;99.90;;;;;;5035540;28;20238;-70
2023/03/12 03:23:55;;;;;;;2.70;1.87;;;0.30;99.90;;;;;;5038636;28;20959;-68
2023/03/12 03:26:22;;;;;;;2.93;2.10;;;0.40;99.90;;;;;;5034062;28;20558;-68
2023/03/12 03:28:48;;;;;;;2.00;1.90;;;0.40;99.90;;;;;;5043884;28;20600;-69
2023/03/12 03:31:15;;;;;;;4.97;2.20;;;0.20;99.90;;;;;;5036691;28;20425;-69
2023/03/12 03:33:41;;;;;;;3.13;2.07;;;0.20;99.90;;;;;;5036094;28;20442;-69
2023/03/12 03:36:08;;;;;;;4.57;2.00;;;0.10;99.90;;;;;;5037796;28;20426;-68
2023/03/12 03:38:35;;;;;;;3.73;2.60;;;0.30;99.90;;;;;;5031913;28;20415;-68
2023/03/12 03:41:00;;;;;;;3.27;2.10;;;0.20;99.90;;;;;;5036179;28;20864;-68
2023/03/12 03:43:26;;;;;;;2.80;2.50;;;0.00;99.90;;;;;;5038709;28;20469;-68
2023/03/12 03:46:00;;;;;;;8.90;2.10;;;-0.10;99.90;;;;;;5043180;28;20421;-67
2023/03/12 03:48:26;;;;;;;4.67;2.40;;;-0.20;99.90;;;;;;5039445;28;20445;-68
2023/03/12 03:50:52;;;;;;;2.87;2.03;;;-0.20;99.90;;;;;;5044101;28;20421;-69
2023/03/12 03:53:20;;;;;;;2.50;2.30;;;0.00;99.90;;;;;;5050326;22;20353;-63
2023/03/12 03:55:46;;;;;;;2.53;2.13;;;0.00;99.90;;;;;;5031558;28;20242;-62
2023/03/12 03:58:12;;;;;;;2.07;1.70;;;-0.10;99.90;;;;;;5032277;28;20411;-63
2023/03/12 04:00:38;;;;;;;2.50;1.60;;;-0.10;99.90;;;;;;5045746;28;21018;-63
2023/03/12 04:03:04;;;;;;;5.40;2.20;;;-0.10;99.90;;;;;;5038973;28;20328;-63
2023/03/12 04:05:30;;;;;;;2.00;1.77;;;0.00;99.90;;;;;;5040547;28;20175;-61
2023/03/12 04:07:55;;;;;;;5.87;2.20;;;-0.10;99.90;;;;;;5043144;28;20270;-62
2023/03/12 04:10:23;;;;;;;3.33;2.10;;;-0.10;99.90;;;;;;5034786;28;20408;-61
2023/03/12 04:12:50;;;;;;;2.57;2.10;;;-0.10;99.90;;;;;;5043668;28;20604;-63
2023/03/12 04:15:15;;;;;;;3.97;2.40;;;0.10;99.90;;;;;;5043182;28;20413;-61
2023/03/12 04:17:41;;;;;;;1.73;1.60;;;-0.10;99.90;;;;;;5042894;28;20400;-63
2023/03/12 04:20:09;;;;;;;2.43;1.90;;;-0.10;99.90;;;;;;5042845;28;20636;-63
2023/03/12 04:22:35;;;;;;;2.67;2.10;;;-0.20;99.90;;;;;;5034641;28;20198;-63
2023/03/12 04:25:01;;;;;;;2.70;2.13;;;-0.30;99.90;;;;;;5036252;28;20415;-63
2023/03/12 04:27:27;;;;;;;6.70;2.53;;;-0.40;99.90;;;;;;5035891;28;20216;-62
2023/03/12 04:29:53;;;;;;;1.83;1.73;;;-0.50;99.90;;;;;;5043452;28;20439;-61
2023/03/12 04:32:18;;;;;;;5.57;2.50;;;-0.40;99.90;;;;;;5040347;28;20159;-61
2023/03/12 04:34:44;;;;;;;1.90;1.80;;;-0.40;99.90;;;;;;5030924;28;20575;-63
2023/03/12 04:37:12;;;;;;;5.30;3.17;;;-0.20;99.90;;;;;;5043002;28;20174;-65
2023/03/12 04:39:38;;;;;;;2.90;2.70;;;-0.30;99.90;;;;;;5042110;28;20202;-60
2023/03/12 04:42:04;;;;;;;2.10;1.90;;;-0.30;99.90;;;;;;5035231;28;20406;-63
2023/03/12 04:44:30;;;;;;;3.33;3.03;;;-0.40;99.90;;;;;;5043439;28;20472;-63
2023/03/12 04:46:56;;;;;;;2.57;2.23;;;-0.30;99.90;;;;;;5042602;28;20412;-63
2023/03/12 04:49:21;;;;;;;6.90;3.03;;;-0.30;99.90;;;;;;5041450;28;20939;-63
2023/03/12 04:51:47;;;;;;;4.10;3.00;;;-0.30;99.90;;;;;;5046427;28;20167;-64
2023/03/12 04:54:13;;;;;;;7.67;3.20;;;-0.40;99.90;;;;;;5046033;28;20588;-63
2023/03/12 04:56:38;;;;;;;3.13;2.50;;;-0.40;99.90;;;;;;5046093;28;20179;-63
2023/03/12 04:59:04;;;;;;;3.63;3.20;;;-0.50;99.90;;;;;;5046516;28;20167;-63
2023/03/12 05:01:32;;;;;;;6.57;4.33;;;-0.60;99.90;;;;;;5043261;28;20183;-62
2023/03/12 05:03:58;;;;;;;5.77;3.67;;;-0.70;99.90;;;;;;5048274;28;20209;-63
2023/03/12 05:06:24;;;;;;;3.50;3.20;;;-0.50;99.90;;;;;;5045090;28;20413;-64
2023/03/12 05:08:50;;;;;;;4.60;3.63;;;-0.60;99.90;;;;;;5048300;28;20401;-63
2023/03/12 05:11:17;;;;;;;4.70;3.00;;;-0.70;99.90;;;;;;5046052;28;20778;-63
2023/03/12 05:13:42;;;;;;;3.33;2.90;;;-0.60;99.90;;;;;;5049838;28;20425;-63
2023/03/12 05:16:09;;;;;;;5.20;3.13;;;-0.40;99.90;;;;;;5056232;28;20401;-63
2023/03/12 05:18:34;;;;;;;4.90;3.53;;;-0.30;99.90;;;;;;5047416;28;20171;-62
2023/03/12 05:21:02;;;;;;;4.50;3.20;;;-0.40;99.90;;;;;;5048072;28;20879;-63
2023/03/12 05:23:29;;;;;;;4.87;3.60;;;-0.40;99.90;;;;;;5043443;28;20207;-63
2023/03/12 05:25:55;;;;;;;21.13;3.70;;;-0.40;99.90;;;;;;5047821;28;20413;-63
2023/03/12 05:28:26;;;;;;;4.50;3.97;;;-0.40;99.90;;;;;;5044392;28;20449;-63
2023/03/12 05:30:56;;;;;;;4.03;3.10;;;-0.50;99.90;;;;;;5042472;28;20393;-64
2023/03/12 05:33:21;;;;;;;5.60;3.57;;;-0.60;99.90;;;;;;5044227;28;20433;-63
2023/03/12 05:35:47;;;;;;;3.20;2.90;;;-0.70;99.90;;;;;;5042490;28;20413;-61
2023/03/12 05:38:13;;;;;;;4.20;3.10;;;-0.60;99.90;;;;;;5048825;28;20231;-63
2023/03/12 05:40:38;;;;;;;2.50;2.30;;;-0.70;99.90;;;;;;5042420;28;20544;-65
2023/03/12 05:43:04;;;;;;;3.83;3.07;;;-0.70;99.90;;;;;;5048887;28;20210;-63
2023/03/12 05:45:31;;;;;;;3.80;3.40;;;-0.60;99.90;;;;;;5042548;28;20176;-61
2023/03/12 05:47:57;;;;;;;3.50;2.97;;;-0.50;99.90;;;;;;5048655;28;20171;-63
2023/03/12 05:50:23;;;;;;;4.63;3.30;;;-0.60;99.90;;;;;;5043794;28;20487;-63
2023/03/12 05:52:49;;;;;;;4.77;3.27;;;-0.50;99.90;;;;;;5041902;28;20172;-64
2023/03/12 05:55:15;;;;;;;3.87;3.27;;;-0.50;99.90;;;;;;5048687;28;20417;-63
2023/03/12 05:57:41;;;;;;;3.37;2.63;;;-0.50;99.90;;;;;;5042062;28;20546;-65
2023/03/12 06:00:07;;;;;;;5.83;3.97;;;-0.50;99.90;;;;;;5048756;28;20174;-61
2023/03/12 06:02:32;;;;;;;4.20;3.80;;;-0.50;99.90;;;;;;5036956;28;20199;-63
2023/03/12 06:04:58;;;;;;;7.60;4.27;;;-0.50;99.90;;;;;;5045708;28;20419;-62
2023/03/12 06:07:24;;;;;;;4.00;2.93;;;-0.40;99.90;;;;;;5044296;28;20174;-63
2023/03/12 06:09:49;;;;;;;7.33;5.00;;;-0.40;99.90;;;;;;5047097;28;20175;-63
2023/03/12 06:12:15;;;;;;;6.77;3.67;;;-0.40;99.90;;;;;;5042674;28;20653;-62
2023/03/12 06:14:41;;;;;;;6.63;4.10;;;-0.40;99.90;;;;;;5049037;28;20282;-61
2023/03/12 06:17:06;;;;;;;5.40;2.90;;;-0.30;99.90;;;;;;5042477;28;20172;-61
2023/03/12 06:19:32;;;;;;;3.17;2.87;;;-0.10;99.90;;;;;;5045549;28;20412;-63
2023/03/12 06:21:58;;;;;;;5.17;3.43;;;0.00;99.90;;;;;;5043314;28;20261;-64
2023/03/12 06:24:23;;;;;;;8.67;3.67;;;0.10;99.90;;;;;;5044241;28;20234;-64
2023/03/12 06:26:49;;;;;;;4.77;4.30;;;0.40;99.90;;;;;;5046768;28;20565;-62
2023/03/12 06:29:14;;;;;;;5.90;4.67;;;0.90;99.90;;;;;;5042242;28;20286;-63
2023/03/12 06:31:40;;;;;;;6.23;4.10;;;1.40;99.90;;;;;;5048788;28;20176;-64
2023/03/12 06:34:07;;;;;;;5.40;4.33;;;2.30;99.90;;;;;;5041571;28;20191;-64
2023/03/12 06:36:33;;;;;;;4.07;2.73;;;2.20;99.90;;;;;;5044538;28;20505;-64
2023/03/12 06:38:58;;;;;;;2.97;2.63;;;2.10;99.90;;;;;;5044392;28;20604;-63
2023/03/12 06:41:24;;;;;;;5.17;3.23;;;2.10;99.90;;;;;;5043336;28;20403;-65
2023/03/12 06:43:50;;;;;;;7.00;3.07;;;2.00;99.90;;;;;;5046274;28;20282;-65
2023/03/12 06:46:20;;;;;;;7.57;3.53;;;2.20;99.90;;;;;;5041903;28;20406;-63
2023/03/12 06:48:46;;;;;;;4.97;2.53;;;3.20;99.90;;;;;;5048912;28;20176;-63
2023/03/12 06:51:14;;;;;;;4.77;3.00;;;3.30;99.90;;;;;;5042081;28;20406;-61
2023/03/12 06:53:40;;;;;;;5.00;2.70;;;3.20;99.90;;;;;;5044518;28;20450;-63
2023/03/12 06:56:06;;;;;;;6.90;2.77;;;3.30;99.90;;;;;;5043021;28;20414;-63
2023/03/12 06:58:32;;;;;;;3.10;2.70;;;3.30;99.90;;;;;;5043917;28;20448;-62
2023/03/12 07:00:58;;;;;;;2.90;1.87;;;3.50;99.90;;;;;;5045152;28;20410;-62
2023/03/12 07:03:24;;;;;;;3.97;3.07;;;3.70;99.90;;;;;;5041165;28;20211;-63
2023/03/12 07:05:50;;;;;;;4.00;2.47;;;3.90;99.90;;;;;;5048364;28;20765;-64
2023/03/12 07:08:17;;;;;;;2.80;2.50;;;4.20;99.90;;;;;;5042779;28;20657;-63
2023/03/12 07:10:43;;;;;;;5.03;2.30;;;4.20;99.90;;;;;;5045635;28;20411;-63
2023/03/12 07:13:09;;;;;;;3.73;2.23;;;4.80;99.90;;;;;;5039506;28;20428;-64
2023/03/12 07:15:35;;;;;;;2.40;2.20;;;5.10;99.90;;;;;;5035520;28;20415;-64
2023/03/12 07:18:06;;;;;;;4.07;2.70;;;5.30;99.90;;;;;;5033051;28;20408;-66
2023/03/12 07:20:34;;;;;;;2.70;2.03;;;5.30;99.90;;;;;;5048091;28;20518;-61
2023/03/12 07:23:00;;;;;;;8.07;2.60;;;5.30;99.90;;;;;;5034948;28;20461;-63
2023/03/12 07:25:26;;;;;;;2.40;2.00;;;5.40;99.90;;;;;;5027269;28;20415;-63
2023/03/12 07:27:51;;;;;;;4.07;2.40;;;5.70;99.90;;;;;;5042546;28;20213;-64
2023/03/12 07:30:17;;;;;;;2.50;2.30;;;5.20;99.90;;;;;;5041433;28;20630;-63
2023/03/12 07:32:42;;;;;;;3.93;2.50;;;4.90;99.90;;;;;;5046279;28;20259;-64
2023/03/12 07:35:08;;;;;;;7.23;3.17;;;4.70;99.90;;;;;;5036589;28;20192;-64
2023/03/12 07:37:34;;;;;;;5.73;3.03;;;4.60;99.90;;;;;;5043547;28;20249;-63
2023/03/12 07:40:00;;;;;;;4.10;2.53;;;4.90;99.90;;;;;;5039839;28;20875;-64
2023/03/12 07:42:26;;;;;;;6.90;2.83;;;4.60;99.90;;;;;;5014894;28;20173;-62
2023/03/12 07:44:51;;;;;;;3.50;2.40;;;5.20;99.90;;;;;;5040154;28;20198;-63
2023/03/12 07:47:17;;;;;;;5.13;2.07;;;5.20;99.90;;;;;;5041315;28;20421;-62
2023/03/12 07:49:42;;;;;;;8.87;2.97;;;5.40;99.90;;;;;;5045583;28;20682;-63
2023/03/12 07:52:10;;;;;;;5.77;2.37;;;6.00;99.90;;;;;;5034479;28;20607;-64
2023/03/12 07:54:36;;;;;;;2.30;2.10;;;5.90;99.90;;;;;;5048051;28;20266;-65
2023/03/12 07:57:02;;;;;;;2.20;2.00;;;5.70;99.90;;;;;;5035691;28;20490;-64
2023/03/12 07:59:28;;;;;;;3.60;3.30;;;5.90;99.90;;;;;;5039698;28;20529;-65
2023/03/12 08:01:54;;;;;;;8.40;2.43;;;6.10;99.90;;;;;;5040077;28;20411;-63
2023/03/12 08:04:19;;;;;;;4.30;2.33;;;6.10;99.90;;;;;;5038913;28;20219;-64
2023/03/12 08:06:45;;;;;;;2.37;2.10;;;6.20;99.90;;;;;;5042069;28;20177;-63
2023/03/12 08:09:11;;;;;;;1.87;1.77;;;6.40;99.90;;;;;;5038988;28;20226;-64
2023/03/12 08:11:36;;;;;;;4.97;2.10;;;7.90;99.90;;;;;;5042735;28;20169;-65
2023/03/12 08:14:03;;;;;;;2.80;2.60;;;7.40;99.90;;;;;;5042597;28;20715;-63
2023/03/12 08:16:29;;;;;;;4.80;2.30;;;6.60;99.90;;;;;;5034985;28;20184;-62
2023/03/12 08:18:55;;;;;;;2.27;1.80;;;6.60;99.90;;;;;;5034885;28;20472;-61
2023/03/12 08:21:21;;;;;;;2.87;1.93;;;6.70;99.90;;;;;;5046211;28;20418;-64
2023/03/12 08:23:46;;;;;;;4.73;1.80;;;7.20;99.90;;;;;;5039123;28;20371;-62
2023/03/12 08:26:12;;;;;;;2.47;1.90;;;6.80;99.90;;;;;;5046627;28;20173;-63
2023/03/12 08:28:38;;;;;;;4.47;2.17;;;7.10;99.90;;;;;;5039438;28;20210;-63
2023/03/12 08:31:04;;;;;;;3.63;2.37;;;7.10;99.90;;;;;;5046857;28;20631;-64
2023/03/12 08:33:29;;;;;;;3.53;1.77;;;6.90;99.90;;;;;;5037655;28;20306;-63
2023/03/12 08:35:55;;;;;;;1.67;1.57;;;7.10;99.90;;;;;;5033840;28;20445;-65
2023/03/12 08:38:21;;;;;;;5.20;3.23;;;7.10;99.90;;;;;;5043969;28;20199;-63
2023/03/12 08:40:54;;;;;;;2.90;1.90;;;7.00;99.90;;;;;;5039115;28;20500;-63
2023/03/12 08:43:20;;;;;;;3.03;2.30;;;8.20;99.90;;;;;;5046066;28;20792;-64
2023/03/12 08:45:46;;;;;;;4.07;2.00;;;9.50;99.90;;;;;;5033162;28;20503;-64
2023/03/12 08:48:11;;;;;;;6.60;2.83;;;8.40;99.90;;;;;;5047300;28;20191;-63
2023/03/12 08:50:38;;;;;;;3.13;1.90;;;8.30;99.90;;;;;;5038912;28;20253;-63
2023/03/12 08:53:03;;;;;;;2.67;1.53;;;8.00;99.90;;;;;;5038875;28;20769;-63
2023/03/12 08:55:29;;;;;;;3.83;1.87;;;7.30;99.90;;;;;;5038938;28;20501;-62
2023/03/12 08:57:55;;;;;;;2.93;1.83;;;7.10;99.90;;;;;;5039273;28;20159;-63
2023/03/12 09:00:21;;;;;;;2.10;1.90;;;7.00;99.90;;;;;;5046474;28;20668;-63
2023/03/12 09:02:48;;;;;;;2.30;1.67;;;7.20;99.90;;;;;;5018834;28;20501;-63
2023/03/12 09:05:14;;;;;;;3.17;2.10;;;7.20;99.90;;;;;;5036347;28;20921;-65
2023/03/12 09:07:40;;;;;;;4.50;2.40;;;6.80;99.90;;;;;;5042624;28;20417;-64
2023/03/12 09:10:06;;;;;;;2.70;1.73;;;6.90;99.90;;;;;;5041975;28;20167;-63
2023/03/12 09:12:32;;;;;;;3.93;2.10;;;7.00;99.90;;;;;;5036221;28;20799;-62
2023/03/12 09:14:57;;;;;;;4.03;1.67;;;8.50;99.90;;;;;;5043839;28;20517;-64
2023/03/12 09:17:23;;;;;;;2.60;1.33;;;8.90;99.90;;;;;;5035858;28;20168;-64
2023/03/12 09:19:48;;;;;;;3.77;1.60;;;9.00;99.90;;;;;;5042555;28;20167;-64
2023/03/12 09:22:14;;;;;;;1.90;1.57;;;9.30;99.90;;;;;;5039899;28;20171;-63
2023/03/12 09:24:39;;;;;;;3.47;1.90;;;8.60;99.90;;;;;;5036164;28;20206;-64
2023/03/12 09:27:05;;;;;;;3.60;1.63;;;8.20;99.90;;;;;;5039085;28;20169;-64
2023/03/12 09:29:31;;;;;;;3.83;2.10;;;8.10;99.90;;;;;;5038421;28;20555;-66
2023/03/12 09:31:57;;;;;;;4.40;1.37;;;9.20;99.90;;;;;;5038980;28;20167;-63
2023/03/12 09:34:23;;;;;;;2.73;1.27;;;9.00;99.90;;;;;;5030609;28;20228;-63
2023/03/12 09:36:48;;;;;;;1.73;1.20;;;8.30;99.90;;;;;;5044812;28;20426;-64
2023/03/12 09:39:14;;;;;;;3.30;1.60;;;8.00;99.90;;;;;;5043927;28;20195;-64
2023/03/12 09:41:43;;;;;;;2.23;1.20;;;7.70;99.90;;;;;;5045884;28;20174;-65
2023/03/12 09:44:12;;;;;;;1.97;1.60;;;7.60;99.90;;;;;;5043790;28;20626;-65
2023/03/12 09:46:41;;;;;;;2.70;1.37;;;7.40;99.90;;;;;;5028815;28;20417;-64
2023/03/12 09:49:18;;;;;;;2.47;1.90;;;7.80;99.90;;;;;;5041675;28;20472;-63
2023/03/12 09:51:48;;;;;;;1.90;1.30;;;8.10;99.90;;;;;;5029552;28;20780;-64
2023/03/12 09:54:33;;;;;;;7.23;2.40;;;7.80;99.90;;;;;;5033199;28;20492;-65
2023/03/12 09:57:07;;;;;;;2.97;1.63;;;7.70;99.90;;;;;;5044095;28;20463;-63
2023/03/12 09:59:34;;;;;;;2.70;1.40;;;8.20;99.90;;;;;;5024107;28;20428;-64
2023/03/12 10:02:02;;;;;;;6.10;1.90;;;8.40;99.90;;;;;;5042033;28;20417;-65
2023/03/12 10:04:52;;;;;;;8.90;2.50;;;8.20;99.90;;;;;;5032909;28;20850;-64
2023/03/12 10:07:26;;;;;;;1.60;1.40;;;9.30;99.90;;;;;;5041328;28;20407;-63
2023/03/12 10:10:25;;;;;;;2.33;1.73;;;8.80;99.90;;;;;;5047964;28;20413;-65
2023/03/12 10:13:09;;;;;;;1.60;1.50;;;8.50;99.90;;;;;;5028927;28;20458;-64
2023/03/12 10:16:16;;;;;;;3.90;1.60;;;7.90;99.90;;;;;;5033215;28;20427;-64
2023/03/12 10:19:03;;;;;;;1.77;1.60;;;8.00;99.90;;;;;;5034340;28;20402;-63
2023/03/12 10:21:43;;;;;;;4.40;1.23;;;8.10;99.90;;;;;;5041071;28;20440;-63
2023/03/12 10:24:09;;;;;;;2.40;1.70;;;8.20;99.90;;;;;;5030369;28;20422;-63
2023/03/12 10:26:48;;;;;;;2.47;1.67;;;7.80;99.90;;;;;;5010823;28;20406;-62
2023/03/12 10:29:24;;;;;;;2.40;1.90;;;8.00;99.90;;;;;;5032777;28;20179;-61
2023/03/12 10:32:15;;;;;;;2.50;1.60;;;8.10;99.90;;;;;;5047341;28;20497;-64
2023/03/12 10:34:57;;;;;;;6.20;1.67;;;7.80;99.90;;;;;;5032689;28;20479;-63
2023/03/12 10:37:25;;;;;;;3.07;1.83;;;8.10;99.90;;;;;;5034035;28;20421;-65
2023/03/12 10:39:52;;;;;;;3.83;1.57;;;8.00;99.90;;;;;;5039480;28;20431;-65
2023/03/12 10:42:28;;;;;;;1.70;1.37;;;8.10;99.90;;;;;;5034996;28;20779;-62
2023/03/12 10:44:59;;;;;;;2.50;1.70;;;7.70;99.90;;;;;;5036617;28;20502;-63
2023/03/12 10:47:35;;;;;;;2.17;1.60;;;7.50;99.90;;;;;;5040891;28;20411;-63
2023/03/12 10:50:12;;;;;;;1.90;1.63;;;7.60;99.90;;;;;;5043594;28;20405;-62
2023/03/12 10:52:37;;;;;;;2.27;1.57;;;7.60;99.90;;;;;;5037696;28;20454;-63
2023/03/12 10:55:12;;;;;;;6.47;2.37;;;7.80;99.90;;;;;;5039227;28;20843;-64
2023/03/12 10:57:40;;;;;;;3.87;1.63;;;7.70;99.90;;;;;;5036714;28;20186;-62
2023/03/12 11:00:16;;;;;;;1.20;1.13;;;8.10;99.90;;;;;;5046774;28;20453;-65
2023/03/12 11:02:45;;;;;;;5.30;2.10;;;8.00;99.90;;;;;;5033387;28;20418;-64
2023/03/12 11:05:30;;;;;;;2.27;1.77;;;8.00;99.90;;;;;;5037240;28;20450;-61
2023/03/12 11:07:59;;;;;;;3.97;1.73;;;7.60;99.90;;;;;;5043456;28;20450;-63
2023/03/12 11:10:41;;;;;;;2.00;1.50;;;7.60;99.90;;;;;;5036618;28;20415;-63
2023/03/12 11:13:26;;;;;;;4.50;1.50;;;7.70;99.90;;;;;;5021979;28;20494;-63
2023/03/12 11:15:53;;;;;;;2.77;1.67;;;7.60;99.90;;;;;;5036991;28;20823;-63
2023/03/12 11:18:24;;;;;;;2.40;1.60;;;7.50;99.90;;;;;;5034545;28;20407;-63
2023/03/12 11:20:51;;;;;;;2.30;1.27;;;7.30;99.90;;;;;;5041673;28;20456;-63
2023/03/12 11:23:23;;;;;;;2.30;1.20;;;7.50;99.90;;;;;;5041842;28;20516;-61
2023/03/12 11:25:56;;;;;;;2.27;1.60;;;7.40;99.90;;;;;;5038804;28;20430;-63
2023/03/12 11:28:28;;;;;;;1.50;1.40;;;7.70;99.90;;;;;;5044680;28;20429;-65
2023/03/12 11:30:57;;;;;;;3.70;2.97;;;7.80;99.90;;;;;;5040699;28;20448;-63
2023/03/12 11:33:22;;;;;;;1.13;1.03;;;7.90;99.90;;;;;;5045326;28;20461;-65
2023/03/12 11:36:03;;;;;;;2.70;1.70;;;8.10;99.90;;;;;;5034528;28;20833;-62
2023/03/12 11:38:42;;;;;;;2.77;1.93;;;7.90;99.90;;;;;;5034341;28;20642;-64
2023/03/12 11:41:28;;;;;;;1.70;1.60;;;8.40;99.90;;;;;;5035965;28;20419;-63
2023/03/12 11:43:59;;;;;;;4.13;2.00;;;8.00;99.90;;;;;;4991136;28;20425;-64
2023/03/12 11:46:31;;;;;;;5.03;2.03;;;8.20;99.90;;;;;;5038398;28;20907;-64
2023/03/12 11:49:02;;;;;;;6.00;1.83;;;8.50;99.90;;;;;;5037044;28;20404;-63
2023/03/12 11:51:30;;;;;;;1.93;1.60;;;8.30;99.90;;;;;;5039752;28;20884;-63
2023/03/12 11:54:15;;;;;;;5.23;1.50;;;8.20;99.90;;;;;;5032952;28;20615;-62
2023/03/12 11:56:53;;;;;;;4.10;2.23;;;8.20;99.90;;;;;;5035665;28;20410;-61
2023/03/12 11:59:48;;;;;;;1.80;1.70;;;7.80;99.90;;;;;;5032472;28;20407;-60
2023/03/12 12:02:32;;;;;;;2.30;1.57;;;7.70;99.90;;;;;;5039924;28;20906;-62
2023/03/12 12:05:25;;;;;;;2.20;1.87;;;7.90;99.90;;;;;;5040258;28;20533;-62
2023/03/12 12:08:28;;;;;;;2.73;2.00;;;8.20;99.90;;;;;;5020819;28;21047;-62
2023/03/12 12:10:54;;;;;;;2.40;2.10;;;8.30;99.90;;;;;;5032408;28;20407;-62
2023/03/12 12:13:28;;;;;;;1.87;1.73;;;8.20;99.90;;;;;;5034008;28;20553;-64
2023/03/12 12:16:18;;;;;;;3.87;1.57;;;7.90;99.90;;;;;;5040937;28;20221;-64
2023/03/12 12:19:25;;;;;;;4.73;2.20;;;8.10;99.90;;;;;;5037458;28;20454;-65
2023/03/12 12:22:28;;;;;;;3.33;2.00;;;8.30;99.90;;;;;;4990301;28;20912;-63
2023/03/12 12:25:18;;;;;;;2.83;2.20;;;8.40;99.90;;;;;;5027121;28;20928;-62
2023/03/12 12:28:03;;;;;;;1.63;1.40;;;8.00;99.90;;;;;;5029794;28;20394;-65
2023/03/12 12:31:00;;;;;;;2.60;2.13;;;8.20;99.90;;;;;;5042049;28;20406;-63
2023/03/12 12:33:56;;;;;;;2.50;1.87;;;8.10;99.90;;;;;;5039625;28;20523;-63
2023/03/12 12:36:26;;;;;;;4.10;2.27;;;7.90;99.90;;;;;;5035228;28;20420;-65
2023/03/12 12:39:04;;;;;;;3.10;2.00;;;8.00;99.80;;;;;;5018842;28;20439;-63
2023/03/12 12:41:36;;;;;;;3.17;2.70;;;7.90;99.90;;;;;;5034345;28;20410;-65
2023/03/12 12:44:13;;;;;;;3.17;2.30;;;7.90;99.80;;;;;;5042808;28;20425;-60
2023/03/12 12:46:54;;;;;;;2.10;1.70;;;7.90;99.30;;;;;;5033704;28;20465;-62
2023/03/12 12:49:38;;;;;;;2.80;2.10;;;7.90;97.90;;;;;;5030640;28;20427;-62
2023/03/12 12:52:07;;;;;;;3.13;2.10;;;8.10;97.40;;;;;;5038775;28;20444;-62
2023/03/12 12:54:50;;;;;;;5.63;2.30;;;8.10;95.80;;;;;;5041497;28;20483;-63
2023/03/12 12:57:37;;;;;;;3.00;2.10;;;8.10;95.80;;;;;;5034569;28;20923;-63
2023/03/12 13:00:26;;;;;;;1.90;1.80;;;8.30;95.50;;;;;;5035248;28;20502;-61
2023/03/12 13:02:55;;;;;;;2.23;1.90;;;8.40;94.40;;;;;;5031567;28;20413;-63
2023/03/12 13:05:38;;;;;;;1.77;1.57;;;8.30;94.60;;;;;;5038366;28;20509;-63
2023/03/12 13:08:07;;;;;;;1.77;1.63;;;8.10;94.40;;;;;;5039002;28;20410;-63